createdAt,value
2018-02-07T00:01:58.471Z,50.50
2018-02-07T00:04:25.945Z,42.65
2018-02-07T00:06:53.443Z,45.90
2018-02-07T00:09:20.918Z,41.42
2018-02-07T00:11:48.423Z,41.22
2018-02-07T00:14:15.909Z,45.53
2018-02-07T00:16:44.571Z,48.75
2018-02-07T00:19:12.092Z,46.55
2018-02-07T00:21:39.582Z,40.28
2018-02-07T00:24:07.083Z,44.22
2018-02-07T00:26:34.557Z,47.30
2018-02-07T00:29:02.042Z,41.35
2018-02-07T00:31:29.550Z,43.70
2018-02-07T00:33:57.794Z,48.50
2018-02-07T00:36:25.290Z,41.40
2018-02-07T00:38:53.530Z,51.15
2018-02-07T00:41:21.029Z,50.95
2018-02-07T00:43:48.522Z,41.92
2018-02-07T00:46:16.028Z,39.72
2018-02-07T00:48:43.489Z,45.05
2018-02-07T00:51:11.758Z,41.75
2018-02-07T00:53:39.230Z,45.83
2018-02-07T00:56:07.511Z,39.38
2018-02-07T00:58:35.774Z,39.25
2018-02-07T01:01:04.016Z,47.70
2018-02-07T01:03:31.530Z,41.88
2018-02-07T01:05:59.049Z,49.28
2018-02-07T01:08:26.536Z,46.80
2018-02-07T01:10:54.013Z,46.88
2018-02-07T01:13:21.523Z,42.50
2018-02-07T01:15:48.998Z,40.78
2018-02-07T01:18:16.466Z,46.65
2018-02-07T01:20:44.723Z,39.22
2018-02-07T01:23:12.198Z,49.20
2018-02-07T01:25:40.458Z,49.35
2018-02-07T01:28:08.707Z,39.40
2018-02-07T01:30:36.194Z,50.97
2018-02-07T01:33:03.669Z,43.08
2018-02-07T01:35:31.941Z,41.13
2018-02-07T01:38:00.192Z,47.33
2018-02-07T01:40:27.653Z,43.45
2018-02-07T01:42:55.162Z,47.58
2018-02-07T01:45:22.653Z,44.42
2018-02-07T01:47:50.158Z,43.97
2018-02-07T01:50:18.397Z,41.03
2018-02-07T01:52:45.871Z,46.25
2018-02-07T12:46:56.561Z,74.70
2018-02-07T12:49:24.109Z,81.55
2018-02-07T12:51:51.604Z,83.40
2018-02-07T12:54:19.139Z,83.05
2018-02-07T12:56:46.610Z,78.22
2018-02-07T12:59:14.089Z,65.85
2018-02-07T13:01:41.571Z,74.40
2018-02-07T13:04:09.801Z,74.65
2018-02-07T13:06:37.299Z,67.03
2018-02-07T13:09:05.530Z,71.40
2018-02-07T13:11:33.060Z,71.25
2018-02-07T13:14:01.314Z,76.85
2018-02-07T13:16:29.561Z,76.75
2018-02-07T13:18:57.050Z,75.70
2018-02-07T13:21:25.290Z,75.62
2018-02-07T13:23:52.833Z,73.47
2018-02-07T13:26:20.305Z,73.97
2018-02-07T13:28:47.813Z,71.78
2018-02-07T13:31:16.071Z,71.45
2018-02-07T13:33:44.320Z,64.22
2018-02-07T13:36:11.815Z,66.45
2018-02-07T13:38:40.117Z,59.60
2018-02-07T13:41:08.360Z,70.18
2018-02-07T13:43:35.815Z,68.05
2018-02-07T13:46:03.368Z,68.90
2018-02-07T13:48:30.818Z,67.18
2018-02-07T13:50:58.318Z,69.32
2018-02-07T13:53:26.589Z,75.28
2018-02-07T13:55:54.846Z,62.95
2018-02-07T13:58:22.334Z,66.97
2018-02-07T14:00:53.579Z,74.03
2018-02-07T14:03:21.070Z,64.78
2018-02-07T14:05:48.548Z,66.95
2018-02-07T14:08:16.048Z,64.57
2018-02-07T14:10:44.287Z,74.50
2018-02-07T14:13:11.759Z,67.37
2018-02-07T14:15:39.279Z,71.07
2018-02-07T14:18:06.781Z,59.63
2018-02-07T14:20:34.263Z,67.75
2018-02-07T14:23:02.582Z,65.20
2018-02-07T14:25:30.046Z,83.12
2018-02-07T14:27:57.555Z,65.22
2018-02-07T14:30:25.794Z,63.90
2018-02-07T14:32:53.246Z,67.05
2018-02-07T14:35:20.749Z,68.55
2018-02-07T14:37:48.233Z,63.78
2018-02-07T14:40:15.743Z,67.40
2018-02-07T14:42:43.209Z,71.80
2018-02-07T14:45:11.464Z,71.25
2018-02-07T14:47:38.955Z,75.53
2018-02-07T14:50:07.462Z,83.40
2018-02-07T14:52:34.935Z,77.70
2018-02-07T14:55:02.420Z,74.20
2018-02-07T14:57:29.898Z,81.10
2018-02-07T14:59:58.158Z,81.72
2018-02-07T15:02:25.663Z,83.75
2018-02-07T15:04:53.151Z,84.55
2018-02-07T15:07:20.634Z,80.60
2018-02-07T15:09:48.134Z,79.35
2018-02-07T15:12:15.622Z,81.95
2018-02-07T15:14:43.131Z,77.07
2018-02-07T15:17:10.598Z,81.47
2018-02-07T15:19:38.871Z,75.12
2018-02-07T15:22:07.149Z,75.62
2018-02-07T15:24:35.400Z,81.75
2018-02-07T15:27:03.490Z,77.03
2018-02-07T15:29:31.778Z,90.75
2018-02-07T15:32:00.053Z,77.37
2018-02-07T15:34:28.331Z,86.80
2018-02-07T15:36:56.601Z,83.05
2018-02-07T15:39:24.058Z,82.53
2018-02-07T15:41:51.560Z,79.95
2018-02-07T15:44:19.018Z,81.07
2018-02-07T15:46:46.522Z,75.50
2018-02-07T15:49:13.970Z,81.40
2018-02-07T15:51:41.469Z,80.75
2018-02-07T15:54:08.949Z,96.85
2018-02-07T15:56:36.413Z,74.93
2018-02-07T15:59:03.939Z,88.87
2018-02-07T16:01:32.192Z,81.05
2018-02-07T16:03:59.690Z,75.97
2018-02-07T16:06:27.478Z,57.08
2018-02-07T16:08:54.970Z,67.62
2018-02-07T16:11:22.445Z,59.80
2018-02-07T16:13:50.715Z,60.35
2018-02-07T16:16:18.221Z,64.10
2018-02-07T16:18:45.746Z,66.25
2018-02-07T16:21:14.020Z,57.40
2018-02-07T16:23:41.539Z,65.47
2018-02-07T16:26:09.037Z,60.83
2018-02-07T16:28:36.516Z,71.80
2018-02-07T16:31:03.973Z,58.90
2018-02-07T16:33:31.479Z,64.47
2018-02-07T16:35:58.991Z,61.15
2018-02-07T16:38:27.272Z,67.75
2018-02-07T16:40:54.787Z,65.45
2018-02-07T16:43:22.289Z,62.15
2018-02-07T16:45:50.521Z,66.72
2018-02-07T16:48:18.790Z,66.90
2018-02-07T16:50:46.319Z,70.55
2018-02-07T16:53:13.808Z,74.93
2018-02-07T16:55:41.311Z,67.62
2018-02-07T16:58:09.567Z,73.40
2018-02-07T17:00:37.046Z,67.32
2018-02-07T17:03:04.515Z,71.10
2018-02-07T17:05:32.010Z,91.12
2018-02-07T17:07:59.539Z,99.10
2018-02-07T17:10:27.017Z,70.03
2018-02-07T17:12:54.536Z,76.50
2018-02-07T17:15:22.774Z,76.80
2018-02-07T17:17:51.068Z,75.45
2018-02-07T17:20:18.535Z,78.60
2018-02-07T17:22:46.815Z,81.32
2018-02-07T17:25:14.273Z,78.25
2018-02-07T17:27:42.558Z,72.12
2018-02-07T17:30:10.803Z,80.70
2018-02-07T17:32:38.328Z,64.32
2018-02-07T17:35:05.826Z,78.05
2018-02-07T17:37:33.311Z,76.45
2018-02-07T17:40:01.598Z,65.28
2018-02-07T17:42:29.873Z,75.97
2018-02-07T17:44:57.352Z,75.15
2018-02-07T17:47:24.819Z,69.35
2018-02-07T17:49:52.322Z,75.20
2018-02-07T17:52:19.799Z,80.93
2018-02-07T17:54:48.055Z,84.72
2018-02-07T17:57:15.580Z,77.35
2018-02-07T17:59:43.092Z,74.07
2018-02-07T18:02:11.360Z,80.53
2018-02-07T18:04:39.618Z,63.53
2018-02-07T18:07:07.132Z,72.45
2018-02-07T18:09:34.618Z,85.65
2018-02-07T18:12:02.102Z,84.22
2018-02-07T18:14:29.649Z,82.43
2018-02-07T18:16:57.151Z,77.55
2018-02-07T18:19:25.457Z,77.50
2018-02-07T18:21:52.967Z,77.53
2018-02-07T18:24:20.453Z,72.82
2018-02-07T18:26:47.958Z,81.47
2018-02-07T18:29:15.488Z,77.93
2018-02-07T18:31:42.987Z,80.70
2018-02-07T18:34:10.510Z,68.28
2018-02-07T18:36:37.999Z,78.40
2018-02-07T18:39:05.564Z,80.30
2018-02-07T18:41:34.547Z,79.20
2018-02-07T18:44:02.050Z,84.62
2018-02-07T18:46:30.277Z,84.25
2018-02-07T18:48:57.782Z,85.40
2018-02-07T18:51:26.066Z,82.70
2018-02-07T18:53:53.545Z,79.95
2018-02-07T18:56:21.055Z,87.18
2018-02-07T18:58:48.565Z,91.70
2018-02-07T19:01:16.079Z,77.62
2018-02-07T19:03:43.602Z,85.00
2018-02-07T19:06:11.098Z,84.70
2018-02-07T19:08:38.600Z,92.20
2018-02-07T19:11:06.082Z,84.62
2018-02-07T19:13:33.621Z,85.20
2018-02-07T19:16:01.093Z,78.37
2018-02-07T19:18:28.633Z,86.72
2018-02-07T19:20:56.123Z,85.80
2018-02-07T19:23:23.630Z,77.68
2018-02-07T19:25:51.098Z,88.95
2018-02-07T19:28:18.602Z,90.87
2018-02-07T19:30:46.086Z,86.55
2018-02-07T19:33:15.072Z,74.45
2018-02-07T19:35:42.564Z,87.40
2018-02-07T19:38:10.042Z,80.78
2018-02-07T19:40:37.550Z,84.72
2018-02-07T19:43:05.030Z,84.15
2018-02-07T19:45:33.316Z,85.57
2018-02-07T19:48:00.795Z,81.07
2018-02-07T19:50:28.310Z,81.40
2018-02-07T19:52:55.816Z,86.10
2018-02-07T19:55:23.301Z,80.62
2018-02-07T19:57:50.820Z,87.65
2018-02-07T20:00:18.312Z,76.35
2018-02-07T20:02:45.796Z,81.90
2018-02-07T20:05:13.300Z,74.70
2018-02-07T20:07:41.258Z,80.10
2018-02-07T20:10:08.766Z,79.12
2018-02-07T20:12:36.255Z,78.22
2018-02-07T20:15:03.851Z,75.32
2018-02-07T20:17:31.333Z,74.15
2018-02-07T20:19:58.833Z,80.75
2018-02-07T20:22:27.102Z,89.82
2018-02-07T20:24:54.587Z,86.20
2018-02-07T20:27:22.087Z,83.07
2018-02-07T20:29:49.578Z,89.10
2018-02-07T20:32:17.057Z,80.03
2018-02-07T20:34:44.562Z,87.10
2018-02-07T20:37:12.043Z,75.65
2018-02-07T20:39:39.562Z,77.55
2018-02-07T20:42:07.080Z,81.20
2018-02-07T20:44:35.310Z,80.43
2018-02-07T20:47:02.842Z,83.15
2018-02-07T20:49:30.351Z,84.30
2018-02-07T20:51:57.850Z,78.70
2018-02-07T20:54:25.324Z,76.10
2018-02-07T20:56:52.872Z,74.55
2018-02-07T20:59:20.370Z,80.65
2018-02-07T21:01:47.890Z,77.40
2018-02-07T21:04:15.373Z,69.55
2018-02-07T21:06:42.851Z,80.07
2018-02-07T21:09:10.347Z,75.07
2018-02-07T21:11:38.601Z,77.07
2018-02-07T21:14:06.140Z,82.82
2018-02-07T21:16:33.618Z,86.97
2018-02-07T21:19:01.110Z,81.55
2018-02-07T21:21:29.358Z,87.10
2018-02-07T21:23:56.902Z,77.35
2018-02-07T21:26:24.447Z,81.30
2018-02-07T21:28:51.919Z,77.70
2018-02-07T21:31:19.422Z,70.93
2018-02-07T21:33:47.665Z,87.50
2018-02-07T21:36:15.181Z,82.60
2018-02-07T21:38:42.640Z,77.05
2018-02-07T21:41:10.163Z,82.70
2018-02-07T21:43:38.405Z,70.55
2018-02-07T21:46:05.892Z,74.10
2018-02-07T21:48:33.382Z,74.68
2018-02-07T21:51:01.603Z,78.32
2018-02-07T21:53:29.099Z,81.22
2018-02-07T21:55:57.340Z,81.53
2018-02-07T21:58:24.868Z,78.90
2018-02-07T22:00:52.362Z,88.22
2018-02-07T22:03:19.843Z,80.80
2018-02-07T22:05:47.342Z,82.00
2018-02-07T22:08:14.818Z,85.55
2018-02-07T22:10:42.323Z,79.80
2018-02-07T22:13:10.570Z,90.55
2018-02-07T22:15:38.070Z,83.10
2018-02-07T22:18:06.321Z,83.32
2018-02-07T22:20:33.826Z,72.80
2018-02-07T22:23:01.322Z,76.15
2018-02-07T22:25:28.852Z,85.72
2018-02-07T22:27:56.319Z,75.10
2018-02-07T22:30:23.811Z,84.97
2018-02-07T22:32:52.807Z,78.53
2018-02-07T22:35:20.278Z,88.15
2018-02-07T22:37:48.560Z,80.53
2018-02-07T22:40:16.839Z,84.60
2018-02-07T22:42:45.099Z,84.03
2018-02-07T22:45:12.592Z,80.12
2018-02-07T22:47:40.106Z,79.90
2018-02-07T22:50:07.874Z,81.32
2018-02-07T22:52:35.394Z,75.28
2018-02-07T22:55:02.855Z,85.15
2018-02-07T22:57:30.369Z,78.00
2018-02-07T22:59:57.851Z,79.10
2018-02-07T23:02:25.358Z,96.43
2018-02-07T23:04:52.865Z,84.22
2018-02-07T23:07:21.097Z,89.97
2018-02-07T23:09:48.570Z,72.85
2018-02-07T23:12:16.082Z,89.68
2018-02-07T23:14:43.569Z,88.43
2018-02-07T23:17:11.058Z,81.80
2018-02-07T23:19:38.549Z,79.70
2018-02-07T23:22:06.050Z,92.40
2018-02-07T23:24:33.565Z,88.20
2018-02-07T23:27:01.050Z,87.97
2018-02-07T23:29:28.550Z,86.57
2018-02-07T23:31:56.063Z,74.95
2018-02-07T23:34:23.530Z,86.78
2018-02-07T23:36:51.050Z,77.75
2018-02-07T23:39:19.291Z,82.47
2018-02-07T23:41:46.754Z,93.55
2018-02-07T23:44:14.648Z,85.22
2018-02-07T23:46:42.890Z,84.95
2018-02-07T23:49:10.378Z,97.03
2018-02-07T23:51:38.630Z,85.38
2018-02-07T23:54:06.138Z,88.22
2018-02-07T23:56:33.614Z,80.50
2018-02-07T23:59:01.122Z,78.40
